createdAt,value
2017-11-14T00:04:40.290Z,4.73
2017-11-14T00:09:42.077Z,5.47
2017-11-14T00:14:43.825Z,4.90
2017-11-14T00:19:45.556Z,4.60
2017-11-14T00:24:47.275Z,5.27
2017-11-14T00:29:49.714Z,4.00
2017-11-14T00:34:51.445Z,4.40
2017-11-14T00:39:53.216Z,4.43
2017-11-14T00:44:54.915Z,4.90
2017-11-14T00:49:56.665Z,4.70
2017-11-14T00:54:58.348Z,4.50
2017-11-14T01:00:00.067Z,5.23
2017-11-14T01:05:02.536Z,4.83
2017-11-14T01:10:04.295Z,4.70
2017-11-14T01:15:06.771Z,4.90
2017-11-14T01:20:08.529Z,5.00
2017-11-14T01:25:10.933Z,5.70
2017-11-14T01:30:13.425Z,6.20
2017-11-14T01:35:15.104Z,5.20
2017-11-14T01:40:16.922Z,6.47
2017-11-14T01:45:18.630Z,6.10
2017-11-14T01:50:20.328Z,6.90
2017-11-14T01:55:22.776Z,6.60
2017-11-14T02:00:36.729Z,8.30
2017-11-14T02:05:39.240Z,7.77
2017-11-14T02:10:40.972Z,7.63
2017-11-14T02:15:42.734Z,6.60
2017-11-14T02:20:44.457Z,7.30
2017-11-14T02:25:47.055Z,6.97
2017-11-14T02:30:48.877Z,6.90
2017-11-14T02:35:51.408Z,5.97
2017-11-14T02:40:53.226Z,7.03
2017-11-14T02:45:54.939Z,6.87
2017-11-14T02:50:56.711Z,5.90
2017-11-14T02:55:58.459Z,7.30
2017-11-14T03:01:00.224Z,7.00
2017-11-14T03:06:01.958Z,5.80
2017-11-14T03:11:03.702Z,6.67
2017-11-14T03:16:05.452Z,5.73
2017-11-14T03:21:07.163Z,5.30
2017-11-14T03:26:08.864Z,5.87
2017-11-14T03:31:10.650Z,5.50
2017-11-14T03:36:12.386Z,5.80
2017-11-14T03:41:14.886Z,6.00
2017-11-14T03:46:17.131Z,5.70
2017-11-14T03:51:19.451Z,6.27
2017-11-14T03:56:25.811Z,5.47
2017-11-14T04:01:28.305Z,5.20
2017-11-14T04:06:30.617Z,6.53
2017-11-14T04:11:32.468Z,5.53
2017-11-14T04:16:34.633Z,5.73
2017-11-14T04:21:41.534Z,5.20
2017-11-14T04:26:49.149Z,5.27
2017-11-14T04:31:52.746Z,6.40
2017-11-14T04:36:57.892Z,6.67
2017-11-14T04:42:05.745Z,6.77
2017-11-14T04:47:07.480Z,9.53
2017-11-14T04:52:10.165Z,10.87
2017-11-14T04:57:14.081Z,11.47
2017-11-14T05:02:20.529Z,12.87
2017-11-14T05:07:22.284Z,12.60
2017-11-14T05:12:23.970Z,12.80
2017-11-14T05:17:26.411Z,12.63
2017-11-14T05:22:28.163Z,13.40
2017-11-14T05:27:30.692Z,14.13
2017-11-14T05:32:33.278Z,15.50
2017-11-14T05:37:35.044Z,13.70
2017-11-14T05:42:36.832Z,14.80
2017-11-14T05:47:38.560Z,14.47
2017-11-14T05:52:40.242Z,14.63
2017-11-14T05:57:42.028Z,14.43
2017-11-14T06:02:43.744Z,15.30
2017-11-14T06:07:45.417Z,15.30
2017-11-14T06:12:47.130Z,16.30
2017-11-14T06:17:48.828Z,15.00
2017-11-14T06:22:51.490Z,16.60
2017-11-14T06:27:53.196Z,15.80
2017-11-14T06:32:54.936Z,15.60
2017-11-14T06:37:56.605Z,15.10
2017-11-14T06:42:59.064Z,14.83
2017-11-14T06:48:00.801Z,13.77
2017-11-14T06:53:02.505Z,14.00
2017-11-14T06:58:04.249Z,13.00
2017-11-14T07:03:05.942Z,14.03
2017-11-14T07:08:07.698Z,13.87
2017-11-14T07:13:09.389Z,12.90
2017-11-14T07:18:11.352Z,14.93
2017-11-14T07:23:13.861Z,12.90
2017-11-14T07:28:15.554Z,13.07
2017-11-14T07:33:18.074Z,12.80
2017-11-14T07:38:19.787Z,11.97
2017-11-14T07:43:21.502Z,12.93
2017-11-14T07:48:23.204Z,11.37
2017-11-14T07:53:24.882Z,11.97
2017-11-14T07:58:26.560Z,11.77
2017-11-14T08:03:29.004Z,12.60
2017-11-14T08:08:30.691Z,12.17
2017-11-14T08:13:32.359Z,12.07
2017-11-14T08:18:34.840Z,12.70
2017-11-14T08:23:36.542Z,11.70
2017-11-14T08:28:38.267Z,12.60
2017-11-14T08:33:41.031Z,11.77
2017-11-14T08:38:42.751Z,13.20
2017-11-14T08:43:44.455Z,12.10
2017-11-14T08:48:46.180Z,12.67
2017-11-14T08:53:47.889Z,12.07
2017-11-14T08:58:50.298Z,13.17
2017-11-14T09:03:52.747Z,11.80
2017-11-14T09:08:54.534Z,10.83
2017-11-14T09:13:56.278Z,12.87
2017-11-14T09:18:58.049Z,12.73
2017-11-14T09:23:59.789Z,14.13
2017-11-14T09:29:01.553Z,14.00
2017-11-14T09:34:03.381Z,13.10
2017-11-14T09:39:05.100Z,14.00
2017-11-14T09:44:06.882Z,13.50
2017-11-14T09:49:08.636Z,14.20
2017-11-14T09:54:10.404Z,13.07
2017-11-14T09:59:12.916Z,14.63
2017-11-14T10:04:15.419Z,14.33
2017-11-14T10:09:17.204Z,14.20
2017-11-14T10:14:18.962Z,14.20
2017-11-14T10:19:20.724Z,13.90
2017-11-14T10:24:22.495Z,14.90
2017-11-14T10:29:24.276Z,12.83
2017-11-14T10:34:26.048Z,14.43
2017-11-14T10:39:28.591Z,13.47
2017-11-14T10:44:30.343Z,14.07
2017-11-14T10:49:32.094Z,13.40
2017-11-14T10:54:33.843Z,12.03
2017-11-14T10:59:35.609Z,11.33
2017-11-14T11:04:37.391Z,10.50
2017-11-14T11:09:39.207Z,10.90
2017-11-14T11:14:41.030Z,12.10
2017-11-14T11:19:42.808Z,11.67
2017-11-14T11:24:44.605Z,12.10
2017-11-14T11:29:46.367Z,12.23
2017-11-14T11:34:48.141Z,12.20
2017-11-14T11:39:50.711Z,11.07
2017-11-14T11:44:52.444Z,11.23
2017-11-14T11:49:54.520Z,10.57
2017-11-14T11:54:57.180Z,11.43
2017-11-14T11:59:58.963Z,10.27
2017-11-14T12:05:00.915Z,11.10
2017-11-14T12:10:02.773Z,10.80
2017-11-14T12:15:04.520Z,8.70
2017-11-14T12:20:06.429Z,7.40
2017-11-14T12:25:08.805Z,8.87
2017-11-14T12:30:10.637Z,8.30
2017-11-14T12:35:16.846Z,7.50
2017-11-14T12:40:19.050Z,7.43
2017-11-14T12:45:21.449Z,6.93
2017-11-14T12:50:23.305Z,6.70
2017-11-14T12:55:25.377Z,6.03
2017-11-14T13:00:27.346Z,6.10
2017-11-14T13:05:29.028Z,5.40
2017-11-14T13:10:30.756Z,5.03
2017-11-14T13:15:33.180Z,4.70
2017-11-14T13:20:36.200Z,5.10
2017-11-14T13:25:38.772Z,4.70
2017-11-14T13:30:40.579Z,5.67
2017-11-14T13:35:42.283Z,5.03
2017-11-14T13:40:44.623Z,5.47
2017-11-14T13:45:47.145Z,5.87
2017-11-14T13:50:50.603Z,6.43
2017-11-14T13:55:54.018Z,5.10
2017-11-14T14:00:56.216Z,5.70
2017-11-14T14:05:58.663Z,5.40
2017-11-14T14:11:01.752Z,7.07
2017-11-14T14:16:03.502Z,6.90
2017-11-14T14:21:07.820Z,6.57
2017-11-14T14:26:09.535Z,8.20
2017-11-14T14:31:11.249Z,7.47
2017-11-14T14:36:13.708Z,6.73
2017-11-14T14:41:15.427Z,7.30
2017-11-14T14:46:17.146Z,7.20
2017-11-14T14:51:18.822Z,7.33
2017-11-14T14:56:20.531Z,6.50
2017-11-14T15:01:22.685Z,6.70
2017-11-14T15:06:24.381Z,6.63
2017-11-14T15:11:26.091Z,7.60
2017-11-14T15:16:27.834Z,8.00
2017-11-14T15:21:29.571Z,7.40
2017-11-14T15:26:31.292Z,7.50
2017-11-14T15:31:32.997Z,8.77
2017-11-14T15:36:34.719Z,8.73
2017-11-14T15:41:36.430Z,9.67
2017-11-14T15:46:38.167Z,9.80
2017-11-14T15:51:39.892Z,9.60
2017-11-14T15:56:41.748Z,9.00
2017-11-14T16:01:44.187Z,8.63
2017-11-14T16:06:45.904Z,8.37
2017-11-14T16:11:47.594Z,8.70
2017-11-14T16:16:49.325Z,10.13
2017-11-14T16:21:51.167Z,9.83
2017-11-14T16:26:52.907Z,9.23
2017-11-14T16:31:54.584Z,9.70
2017-11-14T16:36:56.327Z,9.93
2017-11-14T16:41:58.044Z,9.60
2017-11-14T16:47:00.499Z,10.47
2017-11-14T16:52:02.223Z,11.07
2017-11-14T16:57:04.316Z,10.50
2017-11-14T17:02:06.054Z,11.93
2017-11-14T17:07:07.759Z,12.87
2017-11-14T17:12:10.255Z,12.30
2017-11-14T17:17:11.977Z,13.57
2017-11-14T17:22:14.448Z,13.73
2017-11-14T17:27:16.167Z,15.37
2017-11-14T17:32:17.843Z,14.43
2017-11-14T17:37:19.529Z,15.70
2017-11-14T17:42:21.217Z,14.40
2017-11-14T17:47:22.894Z,14.07
2017-11-14T17:52:25.339Z,15.60
2017-11-14T17:57:27.005Z,14.77
2017-11-14T18:02:29.417Z,15.93
2017-11-14T18:07:31.258Z,15.97
2017-11-14T18:12:32.973Z,17.30
2017-11-14T18:17:35.240Z,16.87
2017-11-14T18:22:37.555Z,16.10
2017-11-14T18:27:39.269Z,17.30
2017-11-14T18:32:40.963Z,16.33
2017-11-14T18:37:42.686Z,18.90
2017-11-14T18:42:44.387Z,18.43
2017-11-14T18:47:46.140Z,19.93
2017-11-14T18:52:47.877Z,21.90
2017-11-14T18:57:49.568Z,22.10
2017-11-14T19:02:51.389Z,21.10
2017-11-14T19:07:53.108Z,23.00
2017-11-14T19:12:54.905Z,22.80
2017-11-14T19:17:56.591Z,23.40
2017-11-14T19:22:58.269Z,24.63
2017-11-14T19:28:00.052Z,23.77
2017-11-14T19:33:02.645Z,23.93
2017-11-14T19:38:04.398Z,24.43
2017-11-14T19:43:06.130Z,23.03
2017-11-14T19:48:07.927Z,24.30
2017-11-14T19:53:10.394Z,22.43
2017-11-14T19:58:12.482Z,22.90
2017-11-14T20:03:14.202Z,22.50
2017-11-14T20:08:15.905Z,22.57
2017-11-14T20:13:17.628Z,24.00
2017-11-14T20:18:19.359Z,23.20
2017-11-14T20:23:21.797Z,21.00
2017-11-14T20:28:23.528Z,21.50
2017-11-14T20:33:25.215Z,22.40
2017-11-14T20:38:27.810Z,22.23
2017-11-14T20:43:30.849Z,20.90
2017-11-14T20:48:32.583Z,22.03
2017-11-14T20:53:34.276Z,22.10
2017-11-14T20:58:36.448Z,21.63
2017-11-14T21:03:38.184Z,23.33
2017-11-14T21:08:39.887Z,22.83
2017-11-14T21:13:41.608Z,24.37
2017-11-14T21:18:43.684Z,22.30
2017-11-14T21:23:45.436Z,24.60
2017-11-14T21:28:47.206Z,23.30
2017-11-14T21:33:49.667Z,23.60
2017-11-14T21:38:51.459Z,24.70
2017-11-14T21:43:53.564Z,24.40
2017-11-14T21:48:55.389Z,24.80
2017-11-14T21:53:57.067Z,23.97
2017-11-14T21:58:58.818Z,23.97
2017-11-14T22:04:00.505Z,24.40
2017-11-14T22:09:02.186Z,24.60
2017-11-14T22:14:03.891Z,24.07
2017-11-14T22:19:05.582Z,23.73
2017-11-14T22:24:07.321Z,24.20
2017-11-14T22:29:09.787Z,25.40
2017-11-14T22:34:11.482Z,25.70
2017-11-14T22:39:13.384Z,25.53
2017-11-14T22:44:15.087Z,25.60
2017-11-14T22:49:16.811Z,24.87
2017-11-14T22:54:18.531Z,24.63
2017-11-14T22:59:20.999Z,24.97
2017-11-14T23:04:22.710Z,25.17
2017-11-14T23:09:24.425Z,23.30
2017-11-14T23:14:26.165Z,25.30
2017-11-14T23:19:27.868Z,25.10
2017-11-14T23:24:29.564Z,24.57
2017-11-14T23:29:31.272Z,25.07
2017-11-14T23:34:33.003Z,24.70
2017-11-14T23:39:34.745Z,25.00
2017-11-14T23:44:37.275Z,26.23
2017-11-14T23:49:39.057Z,26.77
2017-11-14T23:54:41.521Z,29.47
2017-11-14T23:59:43.199Z,28.60
